sensor_id;sensor_type;location;lat;lon;timestamp;P1;durP1;ratioP1;P2;durP2;ratioP2
56593;SDS011;42474;51.660;5.824;2024-01-07T00:00:33;32.1;;;23.73;;
56593;SDS011;42474;51.660;5.824;2024-01-07T00:04:33;33.58;;;23.94;;
56593;SDS011;42474;51.660;5.824;2024-01-07T00:08:33;37.36;;;26.18;;
56593;SDS011;42474;51.660;5.824;2024-01-07T00:12:33;37.93;;;26.14;;
56593;SDS011;42474;51.660;5.824;2024-01-07T00:16:33;34.39;;;24.71;;
56593;SDS011;42474;51.660;5.824;2024-01-07T00:20:33;37.52;;;28.07;;
56593;SDS011;42474;51.660;5.824;2024-01-07T00:24:33;34.83;;;25.48;;
56593;SDS011;42474;51.660;5.824;2024-01-07T00:28:33;39.27;;;27.42;;
56593;SDS011;42474;51.660;5.824;2024-01-07T00:32:33;36.13;;;26.35;;
56593;SDS011;42474;51.660;5.824;2024-01-07T00:36:33;38.57;;;26.84;;
56593;SDS011;42474;51.660;5.824;2024-01-07T00:40:33;37.38;;;23.69;;
56593;SDS011;42474;51.660;5.824;2024-01-07T00:44:33;41.87;;;28.17;;
56593;SDS011;42474;51.660;5.824;2024-01-07T00:48:33;44.09;;;28.47;;
56593;SDS011;42474;51.660;5.824;2024-01-07T00:52:33;42.46;;;27.06;;
56593;SDS011;42474;51.660;5.824;2024-01-07T00:56:33;44.36;;;27.16;;
56593;SDS011;42474;51.660;5.824;2024-01-07T01:00:33;44.57;;;27.88;;
56593;SDS011;42474;51.660;5.824;2024-01-07T01:04:33;48.18;;;26.56;;
56593;SDS011;42474;51.660;5.824;2024-01-07T01:08:33;52.73;;;30.18;;
56593;SDS011;42474;51.660;5.824;2024-01-07T01:12:33;59.08;;;31.88;;
56593;SDS011;42474;51.660;5.824;2024-01-07T01:16:33;69.09;;;39.15;;
56593;SDS011;42474;51.660;5.824;2024-01-07T01:20:33;63.31;;;33.24;;
56593;SDS011;42474;51.660;5.824;2024-01-07T01:24:33;73.87;;;39.36;;
56593;SDS011;42474;51.660;5.824;2024-01-07T01:28:33;67.82;;;35.91;;
56593;SDS011;42474;51.660;5.824;2024-01-07T01:32:33;81.39;;;41.31;;
56593;SDS011;42474;51.660;5.824;2024-01-07T01:36:33;71.87;;;37.33;;
56593;SDS011;42474;51.660;5.824;2024-01-07T01:40:33;81.42;;;40.88;;
56593;SDS011;42474;51.660;5.824;2024-01-07T01:44:33;82.19;;;40.98;;
56593;SDS011;42474;51.660;5.824;2024-01-07T01:48:33;80.53;;;42.43;;
56593;SDS011;42474;51.660;5.824;2024-01-07T01:52:33;81.42;;;41.2;;
56593;SDS011;42474;51.660;5.824;2024-01-07T01:56:33;69.68;;;33.65;;
56593;SDS011;42474;51.660;5.824;2024-01-07T02:00:33;79.27;;;40.68;;
56593;SDS011;42474;51.660;5.824;2024-01-07T02:04:33;62.17;;;32.78;;
56593;SDS011;42474;51.660;5.824;2024-01-07T02:08:33;66.96;;;34.11;;
56593;SDS011;42474;51.660;5.824;2024-01-07T02:12:33;62.96;;;35.07;;
56593;SDS011;42474;51.660;5.824;2024-01-07T02:16:33;63.9;;;35.93;;
56593;SDS011;42474;51.660;5.824;2024-01-07T02:20:33;63.29;;;35.17;;
56593;SDS011;42474;51.660;5.824;2024-01-07T02:24:33;57.89;;;33.17;;
56593;SDS011;42474;51.660;5.824;2024-01-07T02:28:33;52.23;;;30.93;;
56593;SDS011;42474;51.660;5.824;2024-01-07T02:32:33;50.1;;;30.5;;
56593;SDS011;42474;51.660;5.824;2024-01-07T02:36:33;43.44;;;28.46;;
56593;SDS011;42474;51.660;5.824;2024-01-07T02:40:33;39.08;;;25.05;;
56593;SDS011;42474;51.660;5.824;2024-01-07T02:44:33;44.3;;;26.62;;
56593;SDS011;42474;51.660;5.824;2024-01-07T02:48:33;40.03;;;26.55;;
56593;SDS011;42474;51.660;5.824;2024-01-07T02:52:33;45.01;;;28.22;;
56593;SDS011;42474;51.660;5.824;2024-01-07T02:56:33;45.63;;;28.8;;
56593;SDS011;42474;51.660;5.824;2024-01-07T03:00:33;47.64;;;31;;
56593;SDS011;42474;51.660;5.824;2024-01-07T03:04:33;39.31;;;23.42;;
56593;SDS011;42474;51.660;5.824;2024-01-07T03:08:33;44.9;;;27.89;;
56593;SDS011;42474;51.660;5.824;2024-01-07T03:12:33;43.64;;;27.56;;
56593;SDS011;42474;51.660;5.824;2024-01-07T03:16:33;37.08;;;25.66;;
56593;SDS011;42474;51.660;5.824;2024-01-07T03:20:33;36.75;;;21.57;;
56593;SDS011;42474;51.660;5.824;2024-01-07T03:24:33;37.94;;;24.62;;
56593;SDS011;42474;51.660;5.824;2024-01-07T03:28:33;31.16;;;18.99;;
56593;SDS011;42474;51.660;5.824;2024-01-07T03:32:33;36.64;;;25.11;;
56593;SDS011;42474;51.660;5.824;2024-01-07T03:36:33;36.54;;;22.91;;
56593;SDS011;42474;51.660;5.824;2024-01-07T03:40:33;34.26;;;21.14;;
56593;SDS011;42474;51.660;5.824;2024-01-07T03:44:33;39.2;;;24.99;;
56593;SDS011;42474;51.660;5.824;2024-01-07T03:48:33;37.83;;;23.31;;
56593;SDS011;42474;51.660;5.824;2024-01-07T03:52:33;37.14;;;24.76;;
56593;SDS011;42474;51.660;5.824;2024-01-07T03:56:33;31.3;;;21.46;;
56593;SDS011;42474;51.660;5.824;2024-01-07T04:00:33;37.66;;;24.33;;
56593;SDS011;42474;51.660;5.824;2024-01-07T04:04:33;35.51;;;24.59;;
56593;SDS011;42474;51.660;5.824;2024-01-07T04:08:33;29.51;;;21.36;;
56593;SDS011;42474;51.660;5.824;2024-01-07T04:12:33;25.49;;;18.38;;
56593;SDS011;42474;51.660;5.824;2024-01-07T04:16:33;30.35;;;19.93;;
56593;SDS011;42474;51.660;5.824;2024-01-07T04:20:33;27.4;;;19.58;;
56593;SDS011;42474;51.660;5.824;2024-01-07T04:24:33;25.71;;;18.93;;
56593;SDS011;42474;51.660;5.824;2024-01-07T04:28:33;23.58;;;17.74;;
56593;SDS011;42474;51.660;5.824;2024-01-07T04:32:33;22.99;;;17.03;;
56593;SDS011;42474;51.660;5.824;2024-01-07T04:36:33;24.85;;;18.78;;
56593;SDS011;42474;51.660;5.824;2024-01-07T04:40:33;26.02;;;19.97;;
56593;SDS011;42474;51.660;5.824;2024-01-07T04:44:33;30.12;;;22.1;;
56593;SDS011;42474;51.660;5.824;2024-01-07T04:48:33;24.23;;;17.24;;
56593;SDS011;42474;51.660;5.824;2024-01-07T04:52:33;26.66;;;19.36;;
56593;SDS011;42474;51.660;5.824;2024-01-07T04:56:33;27.42;;;19.91;;
56593;SDS011;42474;51.660;5.824;2024-01-07T05:00:33;28.8;;;18.58;;
56593;SDS011;42474;51.660;5.824;2024-01-07T05:04:33;27.99;;;20.81;;
56593;SDS011;42474;51.660;5.824;2024-01-07T05:08:33;27.97;;;21.24;;
56593;SDS011;42474;51.660;5.824;2024-01-07T05:12:33;25.83;;;18.64;;
56593;SDS011;42474;51.660;5.824;2024-01-07T05:16:33;26.63;;;19.25;;
56593;SDS011;42474;51.660;5.824;2024-01-07T05:20:33;25.97;;;20.82;;
56593;SDS011;42474;51.660;5.824;2024-01-07T05:24:33;26.68;;;20.53;;
56593;SDS011;42474;51.660;5.824;2024-01-07T05:28:33;22.31;;;17.84;;
56593;SDS011;42474;51.660;5.824;2024-01-07T05:32:33;22.71;;;17.41;;
56593;SDS011;42474;51.660;5.824;2024-01-07T05:36:33;20.4;;;15.79;;
56593;SDS011;42474;51.660;5.824;2024-01-07T05:40:33;24.45;;;19.68;;
56593;SDS011;42474;51.660;5.824;2024-01-07T05:44:33;22.85;;;17.55;;
56593;SDS011;42474;51.660;5.824;2024-01-07T05:48:41;25.99;;;21.12;;
56593;SDS011;42474;51.660;5.824;2024-01-07T05:52:33;25.72;;;20.21;;
56593;SDS011;42474;51.660;5.824;2024-01-07T05:56:38;22.84;;;17.37;;
56593;SDS011;42474;51.660;5.824;2024-01-07T06:00:33;26.98;;;20.01;;
56593;SDS011;42474;51.660;5.824;2024-01-07T06:04:33;26.94;;;21.86;;
56593;SDS011;42474;51.660;5.824;2024-01-07T06:08:33;25.48;;;20.52;;
56593;SDS011;42474;51.660;5.824;2024-01-07T06:12:33;24.75;;;17.98;;
56593;SDS011;42474;51.660;5.824;2024-01-07T06:16:33;24.47;;;19.21;;
56593;SDS011;42474;51.660;5.824;2024-01-07T06:20:33;26.47;;;20.52;;
56593;SDS011;42474;51.660;5.824;2024-01-07T06:24:33;24.17;;;19.43;;
56593;SDS011;42474;51.660;5.824;2024-01-07T06:28:33;23.95;;;18.76;;
56593;SDS011;42474;51.660;5.824;2024-01-07T06:32:33;26.27;;;19.03;;
56593;SDS011;42474;51.660;5.824;2024-01-07T06:36:33;25.43;;;19.73;;
56593;SDS011;42474;51.660;5.824;2024-01-07T06:40:33;24.04;;;18.37;;
56593;SDS011;42474;51.660;5.824;2024-01-07T06:44:33;24.17;;;16.59;;
56593;SDS011;42474;51.660;5.824;2024-01-07T06:48:33;25.35;;;18.2;;
56593;SDS011;42474;51.660;5.824;2024-01-07T06:52:33;24.02;;;17.23;;
56593;SDS011;42474;51.660;5.824;2024-01-07T06:56:33;23.18;;;17.07;;
56593;SDS011;42474;51.660;5.824;2024-01-07T07:00:33;24.29;;;17.27;;
56593;SDS011;42474;51.660;5.824;2024-01-07T07:04:33;23.13;;;17.11;;
56593;SDS011;42474;51.660;5.824;2024-01-07T07:08:33;23.04;;;15.41;;
56593;SDS011;42474;51.660;5.824;2024-01-07T07:12:33;24.22;;;17.15;;
56593;SDS011;42474;51.660;5.824;2024-01-07T07:16:33;23.54;;;16.43;;
56593;SDS011;42474;51.660;5.824;2024-01-07T07:20:33;19.91;;;14.37;;
56593;SDS011;42474;51.660;5.824;2024-01-07T07:24:33;23.73;;;16.87;;
56593;SDS011;42474;51.660;5.824;2024-01-07T07:28:33;23.48;;;16.49;;
56593;SDS011;42474;51.660;5.824;2024-01-07T07:32:33;25.37;;;18.73;;
56593;SDS011;42474;51.660;5.824;2024-01-07T07:36:33;25.01;;;17.72;;
56593;SDS011;42474;51.660;5.824;2024-01-07T07:40:33;24.49;;;18.3;;
56593;SDS011;42474;51.660;5.824;2024-01-07T07:44:33;28.49;;;20.16;;
56593;SDS011;42474;51.660;5.824;2024-01-07T07:48:33;24.19;;;16.82;;
56593;SDS011;42474;51.660;5.824;2024-01-07T07:52:33;22.51;;;17.04;;
56593;SDS011;42474;51.660;5.824;2024-01-07T07:56:33;23.57;;;17.26;;
56593;SDS011;42474;51.660;5.824;2024-01-07T08:00:33;23.32;;;17.25;;
56593;SDS011;42474;51.660;5.824;2024-01-07T08:04:33;23.33;;;17.58;;
56593;SDS011;42474;51.660;5.824;2024-01-07T08:08:33;22.57;;;16.7;;
56593;SDS011;42474;51.660;5.824;2024-01-07T08:12:33;18.85;;;14.26;;
56593;SDS011;42474;51.660;5.824;2024-01-07T08:16:33;21.4;;;16.29;;
56593;SDS011;42474;51.660;5.824;2024-01-07T08:20:33;20.06;;;14.57;;
56593;SDS011;42474;51.660;5.824;2024-01-07T08:24:33;20.19;;;15.87;;
56593;SDS011;42474;51.660;5.824;2024-01-07T08:28:33;17.5;;;12.6;;
56593;SDS011;42474;51.660;5.824;2024-01-07T08:32:33;21.01;;;15.78;;
56593;SDS011;42474;51.660;5.824;2024-01-07T08:36:33;16.07;;;11.48;;
56593;SDS011;42474;51.660;5.824;2024-01-07T08:40:33;19.25;;;14.51;;
56593;SDS011;42474;51.660;5.824;2024-01-07T08:48:33;17.52;;;14.5;;
56593;SDS011;42474;51.660;5.824;2024-01-07T08:52:33;16.65;;;12.92;;
56593;SDS011;42474;51.660;5.824;2024-01-07T08:56:33;16.6;;;13.08;;
56593;SDS011;42474;51.660;5.824;2024-01-07T09:00:33;16.83;;;12.64;;
56593;SDS011;42474;51.660;5.824;2024-01-07T09:04:33;16.96;;;13.52;;
56593;SDS011;42474;51.660;5.824;2024-01-07T09:08:33;18.08;;;12.71;;
56593;SDS011;42474;51.660;5.824;2024-01-07T09:12:33;16.6;;;13.89;;
56593;SDS011;42474;51.660;5.824;2024-01-07T09:16:33;17.2;;;14.19;;
56593;SDS011;42474;51.660;5.824;2024-01-07T09:20:33;17.85;;;15.09;;
56593;SDS011;42474;51.660;5.824;2024-01-07T09:24:33;16.82;;;13.83;;
56593;SDS011;42474;51.660;5.824;2024-01-07T09:28:33;15.51;;;13.76;;
56593;SDS011;42474;51.660;5.824;2024-01-07T09:32:33;17.43;;;14.05;;
56593;SDS011;42474;51.660;5.824;2024-01-07T09:36:33;17.45;;;14.03;;
56593;SDS011;42474;51.660;5.824;2024-01-07T09:40:33;16.61;;;13.64;;
56593;SDS011;42474;51.660;5.824;2024-01-07T09:44:33;16.14;;;14.38;;
56593;SDS011;42474;51.660;5.824;2024-01-07T09:48:33;16.3;;;13.87;;
56593;SDS011;42474;51.660;5.824;2024-01-07T09:52:33;15.88;;;13.26;;
56593;SDS011;42474;51.660;5.824;2024-01-07T09:56:38;14.82;;;13.02;;
56593;SDS011;42474;51.660;5.824;2024-01-07T10:00:33;16.23;;;12.13;;
56593;SDS011;42474;51.660;5.824;2024-01-07T10:04:33;16.42;;;12.64;;
56593;SDS011;42474;51.660;5.824;2024-01-07T10:08:33;17.37;;;14.22;;
56593;SDS011;42474;51.660;5.824;2024-01-07T10:12:33;15.76;;;13.39;;
56593;SDS011;42474;51.660;5.824;2024-01-07T10:16:33;16.17;;;12.69;;
56593;SDS011;42474;51.660;5.824;2024-01-07T10:20:33;15.12;;;12.94;;
56593;SDS011;42474;51.660;5.824;2024-01-07T10:24:37;16.22;;;13.74;;
56593;SDS011;42474;51.660;5.824;2024-01-07T10:28:33;15.55;;;13.21;;
56593;SDS011;42474;51.660;5.824;2024-01-07T10:32:35;15.71;;;13.04;;
56593;SDS011;42474;51.660;5.824;2024-01-07T10:36:33;15.96;;;13.34;;
56593;SDS011;42474;51.660;5.824;2024-01-07T10:40:33;16.54;;;13.96;;
56593;SDS011;42474;51.660;5.824;2024-01-07T10:44:33;14.01;;;12.27;;
56593;SDS011;42474;51.660;5.824;2024-01-07T10:48:37;14.22;;;12.29;;
56593;SDS011;42474;51.660;5.824;2024-01-07T10:52:36;14.94;;;12.71;;
56593;SDS011;42474;51.660;5.824;2024-01-07T10:56:38;16.5;;;13.57;;
56593;SDS011;42474;51.660;5.824;2024-01-07T11:00:33;16.36;;;13.22;;
56593;SDS011;42474;51.660;5.824;2024-01-07T11:04:42;16.23;;;13.91;;
56593;SDS011;42474;51.660;5.824;2024-01-07T11:08:39;17.15;;;13.79;;
56593;SDS011;42474;51.660;5.824;2024-01-07T11:12:33;15.84;;;13.5;;
56593;SDS011;42474;51.660;5.824;2024-01-07T11:16:41;16.13;;;12.67;;
56593;SDS011;42474;51.660;5.824;2024-01-07T11:20:34;17.16;;;13.75;;
56593;SDS011;42474;51.660;5.824;2024-01-07T11:24:38;14.06;;;11.78;;
56593;SDS011;42474;51.660;5.824;2024-01-07T11:32:33;11.64;;;8.66;;
56593;SDS011;42474;51.660;5.824;2024-01-07T11:36:35;13.57;;;11.51;;
56593;SDS011;42474;51.660;5.824;2024-01-07T11:40:33;11.91;;;9.93;;
56593;SDS011;42474;51.660;5.824;2024-01-07T11:44:34;10.65;;;9.11;;
56593;SDS011;42474;51.660;5.824;2024-01-07T11:48:34;11.12;;;8.88;;
56593;SDS011;42474;51.660;5.824;2024-01-07T11:52:36;10.2;;;8.55;;
56593;SDS011;42474;51.660;5.824;2024-01-07T11:56:33;9.99;;;8.62;;
56593;SDS011;42474;51.660;5.824;2024-01-07T12:00:33;11.28;;;9.03;;
56593;SDS011;42474;51.660;5.824;2024-01-07T12:04:33;9.84;;;8.37;;
56593;SDS011;42474;51.660;5.824;2024-01-07T12:08:33;11.28;;;10.05;;
56593;SDS011;42474;51.660;5.824;2024-01-07T12:12:33;10.82;;;9.7;;
56593;SDS011;42474;51.660;5.824;2024-01-07T12:16:33;11.52;;;10.19;;
56593;SDS011;42474;51.660;5.824;2024-01-07T12:20:33;8.72;;;7.32;;
56593;SDS011;42474;51.660;5.824;2024-01-07T12:24:33;9.91;;;8.91;;
56593;SDS011;42474;51.660;5.824;2024-01-07T12:28:33;11.06;;;7.77;;
56593;SDS011;42474;51.660;5.824;2024-01-07T12:32:33;8.27;;;6.53;;
56593;SDS011;42474;51.660;5.824;2024-01-07T12:36:33;7.85;;;6.1;;
56593;SDS011;42474;51.660;5.824;2024-01-07T12:40:33;7.59;;;6.78;;
56593;SDS011;42474;51.660;5.824;2024-01-07T12:44:33;7.43;;;6.61;;
56593;SDS011;42474;51.660;5.824;2024-01-07T12:48:33;7.05;;;5.87;;
56593;SDS011;42474;51.660;5.824;2024-01-07T12:52:33;6.56;;;5.29;;
56593;SDS011;42474;51.660;5.824;2024-01-07T12:56:33;5.56;;;4.41;;
56593;SDS011;42474;51.660;5.824;2024-01-07T13:00:33;4.38;;;3.54;;
56593;SDS011;42474;51.660;5.824;2024-01-07T13:04:33;6.06;;;4.55;;
56593;SDS011;42474;51.660;5.824;2024-01-07T13:08:33;4.51;;;3.64;;
56593;SDS011;42474;51.660;5.824;2024-01-07T13:12:33;3.62;;;2.82;;
56593;SDS011;42474;51.660;5.824;2024-01-07T13:16:33;4.61;;;3.21;;
56593;SDS011;42474;51.660;5.824;2024-01-07T13:20:33;6.53;;;3.58;;
56593;SDS011;42474;51.660;5.824;2024-01-07T13:24:33;5.27;;;3.68;;
56593;SDS011;42474;51.660;5.824;2024-01-07T13:28:33;4.92;;;3.71;;
56593;SDS011;42474;51.660;5.824;2024-01-07T13:32:33;4.48;;;3.78;;
56593;SDS011;42474;51.660;5.824;2024-01-07T13:36:33;4.56;;;4.01;;
56593;SDS011;42474;51.660;5.824;2024-01-07T13:40:33;7.11;;;3.91;;
56593;SDS011;42474;51.660;5.824;2024-01-07T13:44:33;3.36;;;2.98;;
56593;SDS011;42474;51.660;5.824;2024-01-07T13:48:33;5.09;;;3.74;;
56593;SDS011;42474;51.660;5.824;2024-01-07T13:52:33;4.88;;;3.76;;
56593;SDS011;42474;51.660;5.824;2024-01-07T13:56:33;4.17;;;3.6;;
56593;SDS011;42474;51.660;5.824;2024-01-07T14:00:33;4.28;;;3.8;;
56593;SDS011;42474;51.660;5.824;2024-01-07T14:04:33;3.77;;;3.39;;
56593;SDS011;42474;51.660;5.824;2024-01-07T14:08:33;3.6;;;2.96;;
56593;SDS011;42474;51.660;5.824;2024-01-07T14:12:33;4.03;;;3.2;;
56593;SDS011;42474;51.660;5.824;2024-01-07T14:16:33;4.26;;;3.39;;
56593;SDS011;42474;51.660;5.824;2024-01-07T14:20:33;3.62;;;3.02;;
56593;SDS011;42474;51.660;5.824;2024-01-07T14:24:33;5.03;;;3.19;;
56593;SDS011;42474;51.660;5.824;2024-01-07T14:28:33;4.41;;;3.08;;
56593;SDS011;42474;51.660;5.824;2024-01-07T14:32:33;4.09;;;2.99;;
56593;SDS011;42474;51.660;5.824;2024-01-07T14:36:33;4.64;;;3.73;;
56593;SDS011;42474;51.660;5.824;2024-01-07T14:40:33;4.07;;;3.3;;
56593;SDS011;42474;51.660;5.824;2024-01-07T14:44:33;4.68;;;3.3;;
56593;SDS011;42474;51.660;5.824;2024-01-07T14:48:33;5.54;;;3.71;;
56593;SDS011;42474;51.660;5.824;2024-01-07T14:52:33;3.51;;;2.95;;
56593;SDS011;42474;51.660;5.824;2024-01-07T14:56:33;3.86;;;3.41;;
56593;SDS011;42474;51.660;5.824;2024-01-07T15:00:33;4.57;;;3.58;;
56593;SDS011;42474;51.660;5.824;2024-01-07T15:04:33;4.32;;;3.53;;
56593;SDS011;42474;51.660;5.824;2024-01-07T15:08:33;4.5;;;3.74;;
56593;SDS011;42474;51.660;5.824;2024-01-07T15:12:33;5.29;;;4.27;;
56593;SDS011;42474;51.660;5.824;2024-01-07T15:16:34;3.39;;;3.01;;
56593;SDS011;42474;51.660;5.824;2024-01-07T15:20:33;3.87;;;3.11;;
56593;SDS011;42474;51.660;5.824;2024-01-07T15:24:33;4.64;;;3.53;;
56593;SDS011;42474;51.660;5.824;2024-01-07T15:28:33;3.76;;;2.47;;
56593;SDS011;42474;51.660;5.824;2024-01-07T15:32:33;3.96;;;2.83;;
56593;SDS011;42474;51.660;5.824;2024-01-07T15:36:33;3.47;;;2.97;;
56593;SDS011;42474;51.660;5.824;2024-01-07T15:40:33;4.8;;;2.89;;
56593;SDS011;42474;51.660;5.824;2024-01-07T15:44:33;4.37;;;3.45;;
56593;SDS011;42474;51.660;5.824;2024-01-07T15:48:33;4.8;;;3.09;;
56593;SDS011;42474;51.660;5.824;2024-01-07T15:52:33;4.51;;;3;;
56593;SDS011;42474;51.660;5.824;2024-01-07T15:56:33;3.54;;;2.74;;
56593;SDS011;42474;51.660;5.824;2024-01-07T16:00:33;5.33;;;3.27;;
56593;SDS011;42474;51.660;5.824;2024-01-07T16:04:33;6.38;;;4.93;;
56593;SDS011;42474;51.660;5.824;2024-01-07T16:08:33;4.34;;;3.65;;
56593;SDS011;42474;51.660;5.824;2024-01-07T16:12:33;3.58;;;2.5;;
56593;SDS011;42474;51.660;5.824;2024-01-07T16:16:33;3.68;;;2.62;;
56593;SDS011;42474;51.660;5.824;2024-01-07T16:20:33;6.4;;;3.75;;
56593;SDS011;42474;51.660;5.824;2024-01-07T16:24:33;6.8;;;4.02;;
56593;SDS011;42474;51.660;5.824;2024-01-07T16:28:33;3.67;;;2.99;;
56593;SDS011;42474;51.660;5.824;2024-01-07T16:32:33;4.33;;;2.63;;
56593;SDS011;42474;51.660;5.824;2024-01-07T16:36:33;2.87;;;2.39;;
56593;SDS011;42474;51.660;5.824;2024-01-07T16:40:34;5.56;;;3.92;;
56593;SDS011;42474;51.660;5.824;2024-01-07T16:44:33;3.95;;;3.17;;
56593;SDS011;42474;51.660;5.824;2024-01-07T16:48:33;4.11;;;2.7;;
56593;SDS011;42474;51.660;5.824;2024-01-07T16:52:33;5.74;;;3.77;;
56593;SDS011;42474;51.660;5.824;2024-01-07T16:56:33;5.47;;;3.16;;
56593;SDS011;42474;51.660;5.824;2024-01-07T17:00:33;4.57;;;3.69;;
56593;SDS011;42474;51.660;5.824;2024-01-07T17:04:33;5.48;;;4.51;;
56593;SDS011;42474;51.660;5.824;2024-01-07T17:08:33;6.57;;;4.93;;
56593;SDS011;42474;51.660;5.824;2024-01-07T17:12:33;5.97;;;3.67;;
56593;SDS011;42474;51.660;5.824;2024-01-07T17:16:33;4.52;;;3.73;;
56593;SDS011;42474;51.660;5.824;2024-01-07T17:20:33;3.89;;;3.35;;
56593;SDS011;42474;51.660;5.824;2024-01-07T17:24:33;5.26;;;3.76;;
56593;SDS011;42474;51.660;5.824;2024-01-07T17:28:33;5.69;;;4.07;;
56593;SDS011;42474;51.660;5.824;2024-01-07T17:32:33;6.02;;;3.92;;
56593;SDS011;42474;51.660;5.824;2024-01-07T17:36:33;7.25;;;4.15;;
56593;SDS011;42474;51.660;5.824;2024-01-07T17:40:33;6.15;;;4.09;;
56593;SDS011;42474;51.660;5.824;2024-01-07T17:44:33;6.35;;;4.21;;
56593;SDS011;42474;51.660;5.824;2024-01-07T17:48:33;6.29;;;3.9;;
56593;SDS011;42474;51.660;5.824;2024-01-07T17:52:33;5.87;;;4.24;;
56593;SDS011;42474;51.660;5.824;2024-01-07T17:56:33;5.06;;;3.88;;
56593;SDS011;42474;51.660;5.824;2024-01-07T18:00:33;6.17;;;4.6;;
56593;SDS011;42474;51.660;5.824;2024-01-07T18:04:33;6.63;;;4.62;;
56593;SDS011;42474;51.660;5.824;2024-01-07T18:08:33;5.4;;;4.67;;
56593;SDS011;42474;51.660;5.824;2024-01-07T18:12:33;7.18;;;5.06;;
56593;SDS011;42474;51.660;5.824;2024-01-07T18:16:33;5.13;;;4.37;;
56593;SDS011;42474;51.660;5.824;2024-01-07T18:20:33;7.24;;;4.81;;
56593;SDS011;42474;51.660;5.824;2024-01-07T18:24:33;7.88;;;5.78;;
56593;SDS011;42474;51.660;5.824;2024-01-07T18:28:33;7.83;;;5.91;;
56593;SDS011;42474;51.660;5.824;2024-01-07T18:32:33;7.3;;;5.91;;
56593;SDS011;42474;51.660;5.824;2024-01-07T18:36:33;8.43;;;6.36;;
56593;SDS011;42474;51.660;5.824;2024-01-07T18:40:33;9.94;;;6.82;;
56593;SDS011;42474;51.660;5.824;2024-01-07T18:44:33;11.73;;;7.24;;
56593;SDS011;42474;51.660;5.824;2024-01-07T18:48:33;7.47;;;6.22;;
56593;SDS011;42474;51.660;5.824;2024-01-07T18:52:33;9.76;;;7.14;;
56593;SDS011;42474;51.660;5.824;2024-01-07T18:56:33;10.43;;;7.17;;
56593;SDS011;42474;51.660;5.824;2024-01-07T19:00:33;9.42;;;7.1;;
56593;SDS011;42474;51.660;5.824;2024-01-07T19:04:33;11.25;;;7.97;;
56593;SDS011;42474;51.660;5.824;2024-01-07T19:08:33;12.22;;;8.41;;
56593;SDS011;42474;51.660;5.824;2024-01-07T19:12:33;10.91;;;7.56;;
56593;SDS011;42474;51.660;5.824;2024-01-07T19:16:33;10.75;;;8.17;;
56593;SDS011;42474;51.660;5.824;2024-01-07T19:20:33;11.02;;;8.19;;
56593;SDS011;42474;51.660;5.824;2024-01-07T19:24:35;11.84;;;8.41;;
56593;SDS011;42474;51.660;5.824;2024-01-07T19:28:35;9.92;;;7.98;;
56593;SDS011;42474;51.660;5.824;2024-01-07T19:32:33;8.39;;;7.04;;
56593;SDS011;42474;51.660;5.824;2024-01-07T19:36:33;11.32;;;8.15;;
56593;SDS011;42474;51.660;5.824;2024-01-07T19:40:33;10.17;;;7.14;;
56593;SDS011;42474;51.660;5.824;2024-01-07T19:44:33;10.92;;;7.69;;
56593;SDS011;42474;51.660;5.824;2024-01-07T19:48:33;13.45;;;7.62;;
56593;SDS011;42474;51.660;5.824;2024-01-07T19:52:33;10.88;;;7.27;;
56593;SDS011;42474;51.660;5.824;2024-01-07T19:56:33;10.56;;;8.21;;
56593;SDS011;42474;51.660;5.824;2024-01-07T20:00:33;11.76;;;7.52;;
56593;SDS011;42474;51.660;5.824;2024-01-07T20:04:33;12.2;;;7.92;;
56593;SDS011;42474;51.660;5.824;2024-01-07T20:08:33;11.94;;;8.53;;
56593;SDS011;42474;51.660;5.824;2024-01-07T20:12:33;13.67;;;9.46;;
56593;SDS011;42474;51.660;5.824;2024-01-07T20:16:33;14.3;;;9.72;;
56593;SDS011;42474;51.660;5.824;2024-01-07T20:20:33;15.13;;;9.35;;
56593;SDS011;42474;51.660;5.824;2024-01-07T20:24:33;14.95;;;9.46;;
56593;SDS011;42474;51.660;5.824;2024-01-07T20:28:33;11.61;;;8.76;;
56593;SDS011;42474;51.660;5.824;2024-01-07T20:32:33;14.49;;;9.45;;
56593;SDS011;42474;51.660;5.824;2024-01-07T20:36:33;13.84;;;9.51;;
56593;SDS011;42474;51.660;5.824;2024-01-07T20:40:33;15.25;;;9.85;;
56593;SDS011;42474;51.660;5.824;2024-01-07T20:44:33;13.79;;;9.73;;
56593;SDS011;42474;51.660;5.824;2024-01-07T20:48:33;16.65;;;9.77;;
56593;SDS011;42474;51.660;5.824;2024-01-07T20:52:33;13.57;;;9.14;;
56593;SDS011;42474;51.660;5.824;2024-01-07T20:56:33;13.64;;;8.32;;
56593;SDS011;42474;51.660;5.824;2024-01-07T21:00:33;14.64;;;10.23;;
56593;SDS011;42474;51.660;5.824;2024-01-07T21:04:33;16.26;;;9.05;;
56593;SDS011;42474;51.660;5.824;2024-01-07T21:08:33;13.63;;;9.37;;
56593;SDS011;42474;51.660;5.824;2024-01-07T21:12:33;11.79;;;8.22;;
56593;SDS011;42474;51.660;5.824;2024-01-07T21:16:33;15.03;;;9.26;;
56593;SDS011;42474;51.660;5.824;2024-01-07T21:20:35;13.26;;;9.93;;
56593;SDS011;42474;51.660;5.824;2024-01-07T21:24:33;12.73;;;8.53;;
56593;SDS011;42474;51.660;5.824;2024-01-07T21:28:33;12.59;;;8.68;;
56593;SDS011;42474;51.660;5.824;2024-01-07T21:32:33;12.86;;;9;;
56593;SDS011;42474;51.660;5.824;2024-01-07T21:36:39;12.92;;;8.83;;
56593;SDS011;42474;51.660;5.824;2024-01-07T21:40:33;11.8;;;7.89;;
56593;SDS011;42474;51.660;5.824;2024-01-07T21:44:34;11.26;;;8.1;;
56593;SDS011;42474;51.660;5.824;2024-01-07T21:48:34;14.29;;;9.06;;
56593;SDS011;42474;51.660;5.824;2024-01-07T21:52:33;13.64;;;9.89;;
56593;SDS011;42474;51.660;5.824;2024-01-07T21:56:33;14.82;;;9.33;;
56593;SDS011;42474;51.660;5.824;2024-01-07T22:00:33;16.07;;;9.94;;
56593;SDS011;42474;51.660;5.824;2024-01-07T22:04:33;13.9;;;9.72;;
56593;SDS011;42474;51.660;5.824;2024-01-07T22:08:33;13.97;;;9.46;;
56593;SDS011;42474;51.660;5.824;2024-01-07T22:12:33;14.87;;;9.51;;
56593;SDS011;42474;51.660;5.824;2024-01-07T22:16:33;12.75;;;8.76;;
56593;SDS011;42474;51.660;5.824;2024-01-07T22:20:33;12.56;;;8.66;;
56593;SDS011;42474;51.660;5.824;2024-01-07T22:24:33;13.03;;;9.49;;
56593;SDS011;42474;51.660;5.824;2024-01-07T22:28:33;13.25;;;9.17;;
56593;SDS011;42474;51.660;5.824;2024-01-07T22:32:33;9.03;;;6.84;;
56593;SDS011;42474;51.660;5.824;2024-01-07T22:36:33;10.72;;;6.93;;
56593;SDS011;42474;51.660;5.824;2024-01-07T22:40:33;9.42;;;6.88;;
56593;SDS011;42474;51.660;5.824;2024-01-07T22:44:34;9.37;;;6.89;;
56593;SDS011;42474;51.660;5.824;2024-01-07T22:48:33;9.01;;;6.79;;
56593;SDS011;42474;51.660;5.824;2024-01-07T22:52:33;10.62;;;7.12;;
56593;SDS011;42474;51.660;5.824;2024-01-07T22:56:33;8.96;;;6.71;;
56593;SDS011;42474;51.660;5.824;2024-01-07T23:04:33;8.89;;;7.4;;
56593;SDS011;42474;51.660;5.824;2024-01-07T23:08:33;10.18;;;7.18;;
56593;SDS011;42474;51.660;5.824;2024-01-07T23:12:33;10.01;;;7.81;;
56593;SDS011;42474;51.660;5.824;2024-01-07T23:16:33;11.52;;;8.92;;
56593;SDS011;42474;51.660;5.824;2024-01-07T23:20:33;10.06;;;7.72;;
56593;SDS011;42474;51.660;5.824;2024-01-07T23:24:37;10.08;;;8.01;;
56593;SDS011;42474;51.660;5.824;2024-01-07T23:28:33;13.97;;;9.63;;
56593;SDS011;42474;51.660;5.824;2024-01-07T23:32:33;17.22;;;12.99;;
56593;SDS011;42474;51.660;5.824;2024-01-07T23:36:33;21.13;;;15.57;;
56593;SDS011;42474;51.660;5.824;2024-01-07T23:40:33;21.03;;;15.3;;
56593;SDS011;42474;51.660;5.824;2024-01-07T23:44:33;19.5;;;13.27;;
56593;SDS011;42474;51.660;5.824;2024-01-07T23:48:34;25.99;;;16.83;;
56593;SDS011;42474;51.660;5.824;2024-01-07T23:52:33;29.62;;;15.51;;